Time;durP1;ratioP1;P1;durP2;ratioP2;P2;SDS_P1;SDS_P2;PMS_P1;PMS_P2;Temp;Humidity;BMP_temperature;BMP_pressure;BME280_temperature;BME280_humidity;BME280_pressure;Samples;Min_cycle;Max_cycle;Signal;HPM_P1;HPM_P2
2022/10/22 00:00:27;;;;;;;;;;;;;;;;;;;;;
2022/10/22 00:03:40;;;;;;;40.70;37.00;;;;;;;11.60;75.08;100072.23;106603;1298;22158;-80
2022/10/22 00:07:00;;;;;;;40.70;36.90;;;;;;;11.59;75.20;100071.04;106765;1297;23790;-81
2022/10/22 00:09:44;;;;;;;41.20;36.80;;;;;;;11.61;75.11;100073.73;106689;1295;23625;-79
2022/10/22 00:12:51;;;;;;;;;;;;;;;;;;;;;
2022/10/22 00:16:31;;;;;;;43.10;39.00;;;;;;;11.67;75.41;100081.13;108050;1287;23681;-80
2022/10/22 00:19:42;;;;;;;41.90;38.00;;;;;;;11.73;75.46;100091.34;108037;1288;21989;-81
2022/10/22 00:23:06;;;;;;;39.40;35.50;;;;;;;11.77;75.31;100087.50;107966;1289;21949;-81
2022/10/22 00:26:04;;;;;;;37.00;33.30;;;;;;;11.81;75.26;100079.62;108015;1289;21948;-81
2022/10/22 00:29:21;;;;;;;;;;;;;;;;;;;;;
2022/10/22 00:32:17;;;;;;;33.80;30.30;;;;;;;11.87;75.12;100078.29;107804;1288;22039;-81
2022/10/22 00:35:14;;;;;;;32.60;29.20;;;;;;;11.89;74.91;100076.66;108136;1288;23700;-80
2022/10/22 00:38:03;;;;;;;31.20;28.20;;;;;;;11.89;74.81;100072.95;108027;1275;21988;-81
2022/10/22 00:41:11;;;;;;;29.60;26.50;;;;;;;11.91;74.91;100075.67;107834;1288;21973;-80
2022/10/22 00:44:43;;;;;;;26.60;24.00;;;;;;;11.94;74.85;100074.69;107970;1285;21940;-82
2022/10/22 00:47:44;;;;;;;25.70;23.10;;;;;;;11.91;74.80;100068.35;107576;1292;22762;-81
2022/10/22 00:50:42;;;;;;;25.30;22.70;;;;;;;11.94;74.81;100072.41;107408;1292;22037;-80
2022/10/22 00:53:42;;;;;;;25.40;23.00;;;;;;;11.96;74.68;100077.75;107386;1292;23896;-81
2022/10/22 00:56:19;;;;;;;24.50;21.90;;;;;;;11.97;74.60;100072.80;107194;1292;22207;-80
2022/10/22 00:59:12;;;;;;;24.50;22.10;;;;;;;11.95;74.39;100062.58;107231;1292;23638;-80
2022/10/22 01:02:26;;;;;;;26.00;21.80;;;;;;;11.96;74.47;100061.66;107493;1292;21957;-80
2022/10/22 01:05:20;;;;;;;;;;;;;;;;;;;;;
2022/10/22 01:08:19;;;;;;;;;;;;;;;;;;;;;
2022/10/22 01:11:52;;;;;;;22.60;20.10;;;;;;;12.03;74.38;100054.02;108097;1288;21966;-81
2022/10/22 01:15:03;;;;;;;22.30;20.00;;;;;;;12.04;74.29;100046.47;107334;1295;21973;-81
2022/10/22 01:17:57;;;;;;;20.00;17.90;;;;;;;12.03;73.93;100041.80;107415;1292;21995;-81
2022/10/22 01:21:03;;;;;;;19.20;17.40;;;;;;;12.03;73.79;100034.27;107431;1289;22019;-81
2022/10/22 01:24:13;;;;;;;20.20;15.70;;;;;;;12.02;73.79;100031.23;107465;1295;24391;-81
2022/10/22 01:27:25;;;;;;;21.60;17.70;;;;;;;12.02;73.71;100023.20;107242;1295;22004;-81
2022/10/22 01:30:06;;;;;;;26.60;18.50;;;;;;;12.02;73.54;100020.39;106922;1295;22726;-82
2022/10/22 01:32:56;;;;;;;17.70;15.90;;;;;;;12.02;73.51;100017.77;107096;1295;23557;-81
2022/10/22 01:35:37;;;;;;;22.10;19.70;;;;;;;11.98;73.11;100021.13;107000;1295;24497;-81
2022/10/22 01:38:27;;;;;;;;;;;;;;;;;;;;;
2022/10/22 01:41:05;;;;;;;17.90;16.10;;;;;;;11.91;72.85;100013.80;106911;1293;21956;-82
2022/10/22 01:43:44;;;;;;;21.60;17.50;;;;;;;11.89;72.80;100001.80;107128;1295;23624;-82
2022/10/22 01:46:47;;;;;;;20.90;17.50;;;;;;;11.90;72.95;99992.19;106697;1301;24302;-81
2022/10/22 01:49:49;;;;;;;19.90;17.20;;;;;;;11.92;72.72;99989.32;106384;1297;21975;-81
2022/10/22 01:52:30;;;;;;;18.30;15.90;;;;;;;11.87;72.62;99982.56;106884;1297;23064;-80
2022/10/22 01:55:44;;;;;;;19.20;17.10;;;;;;;11.81;72.26;99976.05;106843;1297;21972;-83
2022/10/22 01:59:07;;;;;;;16.60;14.90;;;;;;;11.68;72.23;99981.36;106874;1297;21994;-81
2022/10/22 02:02:25;;;;;;;22.90;19.20;;;;;;;11.67;72.65;99987.17;106889;1297;21979;-81
2022/10/22 02:05:22;;;;;;;30.50;20.40;;;;;;;11.69;72.57;100000.36;106821;1295;21989;-81
2022/10/22 02:08:13;;;;;;;24.00;21.20;;;;;;;11.71;72.37;100013.67;107157;1293;23700;-81
2022/10/22 02:10:51;;;;;;;21.60;19.10;;;;;;;11.70;72.31;100027.30;107221;1295;21964;-81
2022/10/22 02:13:37;;;;;;;21.10;18.90;;;;;;;11.70;72.26;100037.22;107326;1295;23063;-81
2022/10/22 02:16:12;;;;;;;20.50;16.40;;;;;;;11.70;72.24;100041.41;107202;1295;21957;-81
2022/10/22 02:18:57;;;;;;;24.10;15.80;;;;;;;11.73;72.28;100037.48;107133;1294;21976;-81
2022/10/22 02:21:32;;;;;;;16.80;15.20;;;;;;;11.73;72.17;100041.64;107164;1295;23061;-83
2022/10/22 02:24:04;;;;;;;18.60;15.70;;;;;;;11.76;71.99;100026.52;106918;1295;21967;-84
2022/10/22 02:27:00;;;;;;;16.30;14.70;;;;;;;11.74;71.80;100028.87;107086;1293;22004;-82
2022/10/22 02:29:45;;;;;;;16.90;15.20;;;;;;;11.71;71.51;100026.00;106534;1300;22399;-82
2022/10/22 02:32:25;;;;;;;15.20;13.20;;;;;;;11.70;71.47;100028.88;106333;1300;22596;-81
2022/10/22 02:34:58;;;;;;;15.30;13.70;;;;;;;11.68;71.58;100032.80;106370;1303;21978;-81
2022/10/22 02:37:32;;;;;;;14.90;13.40;;;;;;;11.69;71.38;100017.59;106141;1303;22370;-80
2022/10/22 02:40:21;;;;;;;16.60;14.90;;;;;;;11.69;71.30;100004.36;106167;1301;23624;-81
2022/10/22 02:43:37;;;;;;;20.70;14.30;;;;;;;11.68;71.48;100001.47;106645;1297;21960;-80
2022/10/22 02:46:13;;;;;;;;;;;;;;;11.72;71.32;100004.89;106869;1291;21948;-80
2022/10/22 02:48:49;;;;;;;19.60;16.50;;;;;;;11.68;71.44;100005.27;107480;1292;23695;-81
2022/10/22 02:51:35;;;;;;;;;;;;;;;;;;;;;
2022/10/22 02:54:08;;;;;;;20.80;14.40;;;;;;;11.68;71.11;100000.04;107407;1292;21954;-79
2022/10/22 02:56:43;;;;;;;16.10;14.50;;;;;;;11.68;71.00;99986.08;107369;1292;21964;-81
2022/10/22 02:59:18;;;;;;;20.00;15.80;;;;;;;11.69;70.97;99984.48;107388;1292;21960;-80
2022/10/22 03:02:07;;;;;;;20.20;17.70;;;;;;;11.69;71.03;99993.19;107393;1292;21971;-80
2022/10/22 03:04:49;;;;;;;23.40;18.10;;;;;;;11.69;70.99;99991.29;107385;1286;23727;-80
2022/10/22 03:07:31;;;;;;;17.90;16.00;;;;;;;11.69;71.00;99996.33;107512;1292;21976;-80
2022/10/22 03:10:14;;;;;;;;;;;;;;;;;;;;;
2022/10/22 03:12:49;;;;;;;22.80;19.50;;;;;;;11.70;70.99;100004.13;107675;1288;22094;-81
2022/10/22 03:15:22;;;;;;;21.80;18.70;;;;;;;11.74;70.97;100006.92;107551;1292;22546;-80
2022/10/22 03:18:02;;;;;;;26.30;21.50;;;;;;;11.72;70.84;100009.24;107473;1292;22419;-80
2022/10/22 03:20:37;;;;;;;22.80;20.60;;;;;;;11.74;71.05;100007.08;107624;1291;21973;-79
2022/10/22 03:23:20;;;;;;;24.20;21.50;;;;;;;11.78;71.01;100011.06;107700;1290;22299;-80
2022/10/22 03:25:54;;;;;;;23.10;19.60;;;;;;;11.81;71.05;100006.38;107621;1291;23691;-79
2022/10/22 03:28:27;;;;;;;18.50;16.30;;;;;;;11.81;70.84;99999.44;107754;1287;23017;-79
2022/10/22 03:31:08;;;;;;;18.20;16.40;;;;;;;11.80;70.89;100008.70;107444;1289;21947;-80
2022/10/22 03:33:40;;;;;;;17.70;15.90;;;;;;;11.81;70.98;100019.11;107017;1292;21981;-82
2022/10/22 03:36:15;;;;;;;16.90;15.20;;;;;;;11.83;70.93;100016.90;107510;1292;21997;-82
2022/10/22 03:38:51;;;;;;;17.10;15.40;;;;;;;11.82;70.65;100020.11;107421;1292;23746;-79
2022/10/22 03:41:25;;;;;;;18.00;16.00;;;;;;;11.84;70.89;100026.50;107406;1292;21957;-80
2022/10/22 03:43:57;;;;;;;20.80;16.80;;;;;;;11.88;71.01;100025.75;107216;1295;22404;-80
2022/10/22 03:46:31;;;;;;;18.40;16.40;;;;;;;11.92;70.83;100026.66;107098;1295;21971;-81
2022/10/22 03:49:09;;;;;;;19.30;15.60;;;;;;;11.91;70.60;100027.37;107138;1295;22220;-80
2022/10/22 03:51:48;;;;;;;16.80;15.00;;;;;;;11.88;70.41;100031.18;106916;1295;22898;-82
2022/10/22 03:54:21;;;;;;;19.90;15.60;;;;;;;11.87;70.59;100026.50;106835;1298;23127;-79
2022/10/22 03:57:21;;;;;;;20.30;15.70;;;;;;;11.89;70.75;100018.75;106521;1297;23088;-79
2022/10/22 03:59:57;;;;;;;16.90;15.20;;;;;;;11.89;70.49;100016.14;107178;1292;23074;-80
2022/10/22 04:02:27;;;;;;;18.40;16.40;;;;;;;11.90;70.56;100023.08;107651;1292;21946;-81
2022/10/22 04:05:05;;;;;;;37.40;16.80;;;;;;;11.93;70.66;100021.00;107427;1292;22248;-81
2022/10/22 04:07:52;;;;;;;16.10;14.40;;;;;;;11.96;70.60;100027.30;107609;1292;21950;-81
2022/10/22 04:10:53;;;;;;;15.80;14.10;;;;;;;11.98;70.50;100027.92;107617;1292;21957;-80
2022/10/22 04:13:36;;;;;;;16.50;14.50;;;;;;;11.97;70.30;100024.33;108027;1286;23791;-80
2022/10/22 04:16:19;;;;;;;16.60;14.40;;;;;;;11.96;70.30;100024.00;107997;1286;21969;-80
2022/10/22 04:19:09;;;;;;;15.10;13.50;;;;;;;11.95;70.30;100018.82;108034;1286;23020;-82
2022/10/22 04:21:47;;;;;;;14.40;13.00;;;;;;;11.99;70.40;100012.72;107984;1286;22293;-79
2022/10/22 04:24:28;;;;;;;;;;;;;;;;;;;;;
2022/10/22 04:27:09;;;;;;;18.00;16.10;;;;;;;12.04;70.24;100013.83;108029;1286;23605;-80
2022/10/22 04:29:42;;;;;;;16.80;14.40;;;;;;;12.06;70.04;100009.40;108073;1284;21947;-80
2022/10/22 04:32:21;;;;;;;16.40;14.70;;;;;;;12.08;69.99;99994.31;107973;1286;21970;-80
2022/10/22 04:34:55;;;;;;;14.30;12.60;;;;;;;12.08;69.99;99994.13;108037;1286;21988;-80
2022/10/22 04:37:34;;;;;;;17.20;14.10;;;;;;;12.11;69.86;100002.19;108011;1286;21951;-80
2022/10/22 04:40:10;;;;;;;15.40;13.80;;;;;;;12.09;69.94;99998.59;107940;1286;24306;-81
2022/10/22 04:42:46;;;;;;;17.30;13.70;;;;;;;12.10;69.93;99999.58;107393;1292;23726;-80
2022/10/22 04:45:30;;;;;;;15.30;12.30;;;;;;;12.11;69.75;100003.57;107463;1292;21944;-80
2022/10/22 04:48:08;;;;;;;16.70;13.80;;;;;;;12.08;69.65;100005.97;107468;1292;22076;-81
2022/10/22 04:51:00;;;;;;;;;;;;;;;12.04;69.72;100005.48;107153;1293;21940;-80
2022/10/22 04:53:39;;;;;;;13.80;12.40;;;;;;;11.94;69.93;100003.35;107111;1295;23812;-80
2022/10/22 04:57:03;;;;;;;14.10;12.40;;;;;;;11.94;69.88;99998.13;107096;1295;21959;-80
2022/10/22 04:59:36;;;;;;;16.80;14.70;;;;;;;11.92;69.82;99997.02;106508;1301;21981;-81
2022/10/22 05:02:09;;;;;;;14.80;12.90;;;;;;;11.93;69.80;100001.46;106800;1295;21990;-79
2022/10/22 05:04:47;;;;;;;14.00;12.60;;;;;;;11.95;69.58;99994.59;106988;1295;21976;-83
2022/10/22 05:07:22;;;;;;;14.10;12.80;;;;;;;11.94;69.61;100004.58;106634;1299;23126;-82
2022/10/22 05:09:52;;;;;;;14.70;12.60;;;;;;;11.98;69.66;100006.33;106187;1304;23140;-83
2022/10/22 05:12:23;;;;;;;13.50;12.10;;;;;;;11.99;69.54;100005.88;105941;1304;23084;-80
2022/10/22 05:14:55;;;;;;;12.70;11.40;;;;;;;12.01;69.49;100010.49;105838;1307;21965;-79
2022/10/22 05:17:23;;;;;;;14.00;12.50;;;;;;;12.04;69.49;100010.20;106227;1306;23666;-81
2022/10/22 05:19:52;;;;;;;20.00;14.40;;;;;;;12.07;69.49;100005.50;105912;1305;23126;-82
2022/10/22 05:22:34;;;;;;;;;;;;;;;12.09;69.46;100009.42;106192;1304;21946;-84
2022/10/22 05:25:11;;;;;;;18.10;13.10;;;;;;;12.02;69.55;100017.61;106521;1298;22445;-84
2022/10/22 05:28:15;;;;;;;14.90;12.50;;;;;;;12.02;69.57;100028.77;106907;1295;23107;-84
2022/10/22 05:30:58;;;;;;;13.70;12.40;;;;;;;12.06;69.45;100031.20;107454;1294;23232;-84
2022/10/22 05:33:45;;;;;;;15.20;13.60;;;;;;;12.06;69.30;100033.96;107470;1289;21943;-84
2022/10/22 05:36:25;;;;;;;24.80;15.10;;;;;;;12.09;69.35;100040.64;108074;1284;21975;-83
2022/10/22 05:39:07;;;;;;;15.90;13.90;;;;;;;12.11;69.26;100049.27;108021;1286;21964;-83
2022/10/22 05:41:40;;;;;;;;;;;;;;;12.13;69.17;100060.33;108009;1286;21933;-82
2022/10/22 05:44:15;;;;;;;18.80;16.10;;;;;;;11.99;69.19;100055.58;108436;1289;21948;-83
2022/10/22 05:46:51;;;;;;;17.10;15.30;;;;;;;12.04;69.18;100068.60;108181;1289;21945;-83
2022/10/22 05:49:29;;;;;;;22.00;17.10;;;;;;;12.06;69.36;100056.48;108172;1287;23026;-83
2022/10/22 05:52:09;;;;;;;18.80;16.80;;;;;;;12.10;69.36;100046.17;107947;1283;24422;-84
2022/10/22 05:54:45;;;;;;;23.40;19.60;;;;;;;12.16;69.34;100042.88;108293;1286;21946;-82
2022/10/22 05:57:20;;;;;;;26.60;18.80;;;;;;;12.22;69.27;100047.69;108195;1286;21959;-83
2022/10/22 06:00:03;;;;;;;;;;;;;;;;;;;;;
2022/10/22 06:02:41;;;;;;;21.40;16.70;;;;;;;12.30;69.30;100037.88;108207;1286;22312;-83
2022/10/22 06:05:50;;;;;;;20.80;16.10;;;;;;;12.35;69.14;100035.89;108104;1285;22932;-83
2022/10/22 06:08:24;;;;;;;19.40;15.00;;;;;;;12.38;69.11;100035.20;108305;1286;21951;-83
2022/10/22 06:11:05;;;;;;;16.80;15.00;;;;;;;12.44;69.13;100042.03;107821;1292;22001;-84
2022/10/22 06:14:00;;;;;;;18.80;16.80;;;;;;;12.51;69.08;100045.36;108060;1292;21977;-83
2022/10/22 06:17:03;;;;;;;18.60;16.90;;;;;;;12.54;68.83;100053.06;107818;1292;22066;-83
2022/10/22 06:19:38;;;;;;;23.10;18.70;;;;;;;12.59;68.66;100058.92;107842;1292;21963;-85
2022/10/22 06:22:29;;;;;;;24.60;18.40;;;;;;;12.62;68.49;100068.55;107671;1287;21963;-84
2022/10/22 06:25:05;;;;;;;20.60;18.40;;;;;;;12.65;68.52;100073.80;107340;1297;23684;-85
2022/10/22 06:27:47;;;;;;;24.00;18.70;;;;;;;12.69;68.49;100070.09;106711;1302;21949;-84
2022/10/22 06:30:20;;;;;;;20.70;17.90;;;;;;;12.71;68.30;100073.14;106850;1297;21966;-84
2022/10/22 06:32:57;;;;;;;18.10;16.20;;;;;;;12.69;68.10;100076.89;106769;1297;23240;-81
2022/10/22 06:35:44;;;;;;;19.80;17.10;;;;;;;12.67;68.27;100083.65;106850;1297;22066;-80
2022/10/22 06:38:24;;;;;;;18.00;16.20;;;;;;;12.66;68.39;100090.86;107283;1298;21998;-85
2022/10/22 06:41:15;;;;;;;24.50;17.20;;;;;;;12.66;68.41;100094.33;106440;1298;21969;-84
2022/10/22 06:44:04;;;;;;;27.50;17.70;;;;;;;12.66;68.48;100093.47;106688;1300;22021;-83
2022/10/22 06:46:44;;;;;;;18.50;16.10;;;;;;;12.70;68.52;100099.92;106590;1301;21971;-84
2022/10/22 06:49:35;;;;;;;20.50;18.10;;;;;;;12.75;68.57;100100.19;106870;1300;22368;-86
2022/10/22 06:52:14;;;;;;;21.20;18.60;;;;;;;12.78;68.44;100108.25;107255;1295;21959;-80
2022/10/22 06:55:06;;;;;;;24.90;22.20;;;;;;;12.81;68.52;100112.77;107178;1298;21964;-82
2022/10/22 06:57:47;;;;;;;24.30;18.20;;;;;;;12.84;68.37;100108.46;107087;1298;21958;-82
2022/10/22 07:00:22;;;;;;;20.50;17.80;;;;;;;12.85;68.33;100113.48;107556;1292;22083;-81
2022/10/22 07:02:54;;;;;;;22.00;17.80;;;;;;;12.86;68.32;100116.05;107531;1292;22008;-82
2022/10/22 07:05:35;;;;;;;25.80;23.10;;;;;;;12.87;68.29;100117.23;107568;1290;22030;-82
2022/10/22 07:08:27;;;;;;;22.50;20.00;;;;;;;12.89;68.37;100117.10;107560;1284;23674;-81
2022/10/22 07:11:13;;;;;;;19.90;17.40;;;;;;;12.92;68.30;100114.50;107308;1293;22825;-82
2022/10/22 07:13:56;;;;;;;25.70;19.60;;;;;;;12.91;68.21;100112.30;107316;1292;21952;-83
2022/10/22 07:16:41;;;;;;;21.70;19.60;;;;;;;12.92;68.30;100116.96;107518;1287;22111;-80
2022/10/22 07:19:28;;;;;;;20.80;18.70;;;;;;;12.93;68.38;100118.83;107351;1295;23868;-82
2022/10/22 07:22:04;;;;;;;19.50;17.70;;;;;;;12.98;68.39;100118.55;106817;1298;22007;-82
2022/10/22 07:24:38;;;;;;;18.50;16.60;;;;;;;13.00;68.27;100116.55;106278;1303;21986;-82
2022/10/22 07:27:23;;;;;;;23.40;17.60;;;;;;;13.01;68.14;100112.11;106304;1304;21967;-77
2022/10/22 07:30:01;;;;;;;26.60;22.30;;;;;;;13.03;68.35;100116.20;106651;1301;23716;-82
2022/10/22 07:32:38;;;;;;;20.90;18.70;;;;;;;13.04;68.34;100118.11;106727;1300;22086;-81
2022/10/22 07:35:08;;;;;;;21.00;18.00;;;;;;;13.03;68.10;100126.36;106570;1301;22644;-80
2022/10/22 07:37:38;;;;;;;21.20;19.10;;;;;;;13.00;68.30;100130.34;106765;1297;22048;-81
2022/10/22 07:40:17;;;;;;;21.60;19.30;;;;;;;12.98;68.44;100124.70;106885;1295;23080;-82
2022/10/22 07:42:46;;;;;;;19.60;17.60;;;;;;;12.98;68.51;100124.17;107395;1295;23626;-82
2022/10/22 07:45:18;;;;;;;21.30;18.70;;;;;;;12.96;68.71;100124.64;107351;1292;21963;-82
2022/10/22 07:47:54;;;;;;;22.00;19.20;;;;;;;12.93;68.73;100126.19;107420;1292;21959;-82
2022/10/22 07:50:25;;;;;;;21.20;19.10;;;;;;;12.91;68.86;100132.93;107633;1286;21951;-82
2022/10/22 07:52:54;;;;;;;22.70;19.90;;;;;;;12.89;68.96;100139.27;107977;1286;21964;-82
2022/10/22 07:55:33;;;;;;;23.40;20.30;;;;;;;12.89;69.13;100143.82;108105;1286;23682;-82
2022/10/22 07:58:08;;;;;;;25.10;22.60;;;;;;;12.90;69.21;100146.73;107951;1286;21962;-82
2022/10/22 08:00:40;;;;;;;29.30;26.40;;;;;;;12.93;69.31;100145.89;107976;1286;21945;-82
2022/10/22 08:03:11;;;;;;;26.00;22.80;;;;;;;12.96;69.29;100137.89;107985;1286;21955;-81
2022/10/22 08:05:46;;;;;;;24.60;21.30;;;;;;;12.97;69.23;100131.69;107936;1286;23065;-81
2022/10/22 08:08:18;;;;;;;25.60;22.80;;;;;;;12.99;69.19;100136.14;108030;1284;21954;-82
2022/10/22 08:10:54;;;;;;;24.70;20.60;;;;;;;13.01;69.11;100134.99;107935;1286;22418;-81
2022/10/22 08:13:30;;;;;;;22.80;20.50;;;;;;;13.04;69.08;100133.47;108207;1284;23521;-80
2022/10/22 08:16:11;;;;;;;24.30;20.30;;;;;;;13.04;69.14;100135.35;107629;1279;21945;-81
2022/10/22 08:18:58;;;;;;;21.90;19.50;;;;;;;13.07;69.11;100135.74;107584;1289;23889;-81
2022/10/22 08:21:28;;;;;;;24.20;21.70;;;;;;;13.08;68.89;100135.00;107398;1294;23092;-81
2022/10/22 08:24:03;;;;;;;28.90;26.00;;;;;;;13.12;68.87;100134.98;107445;1288;22217;-79
2022/10/22 08:26:44;;;;;;;25.90;23.30;;;;;;;13.13;68.77;100131.94;107381;1292;23034;-80
2022/10/22 08:29:37;;;;;;;27.70;24.90;;;;;;;13.11;68.64;100131.73;107055;1295;21981;-81
2022/10/22 08:32:15;;;;;;;31.60;27.90;;;;;;;13.11;68.82;100125.41;106668;1301;21973;-80
2022/10/22 08:34:47;;;;;;;26.80;24.10;;;;;;;13.16;68.86;100124.45;106753;1297;21974;-79
2022/10/22 08:37:30;;;;;;;26.40;23.30;;;;;;;13.22;68.96;100123.24;107035;1300;21959;-79
2022/10/22 08:40:06;;;;;;;27.90;24.70;;;;;;;13.31;68.97;100133.46;106799;1295;21977;-80
2022/10/22 08:43:24;;;;;;;30.10;26.90;;;;;;;13.39;68.82;100135.86;107429;1291;22234;-80
2022/10/22 08:46:30;;;;;;;25.70;23.10;;;;;;;13.46;68.85;100126.77;107594;1295;22430;-80
2022/10/22 08:49:04;;;;;;;34.00;27.00;;;;;;;13.53;68.67;100121.66;107277;1295;22066;-79
2022/10/22 08:51:39;;;;;;;32.80;28.80;;;;;;;13.60;68.52;100129.66;107329;1294;22232;-80
2022/10/22 08:54:32;;;;;;;31.30;28.10;;;;;;;13.68;68.44;100141.31;107318;1293;21991;-80
2022/10/22 08:57:07;;;;;;;26.00;21.80;;;;;;;13.74;68.20;100150.94;107522;1289;23063;-81
2022/10/22 08:59:45;;;;;;;26.60;23.90;;;;;;;13.83;68.31;100150.47;107761;1286;22258;-82
2022/10/22 09:02:45;;;;;;;26.60;23.50;;;;;;;13.92;68.14;100146.69;107668;1292;21954;-84
2022/10/22 09:05:41;;;;;;;21.10;18.80;;;;;;;13.98;68.02;100139.52;107854;1292;21969;-81
2022/10/22 09:08:18;;;;;;;22.60;19.60;;;;;;;14.04;67.91;100134.64;107701;1292;23701;-82
2022/10/22 09:11:00;;;;;;;18.20;16.40;;;;;;;14.10;67.72;100127.11;107728;1292;22711;-82
2022/10/22 09:13:31;;;;;;;26.80;22.00;;;;;;;14.18;67.67;100130.17;107486;1290;23345;-82
2022/10/22 09:16:58;;;;;;;28.40;21.90;;;;;;;14.28;67.67;100138.20;107773;1292;22462;-82
2022/10/22 09:20:02;;;;;;;26.30;22.80;;;;;;;14.37;67.50;100143.60;107757;1293;22264;-81
2022/10/22 09:23:07;;;;;;;25.90;22.00;;;;;;;14.48;67.48;100152.98;107925;1286;21979;-82
2022/10/22 09:25:42;;;;;;;25.40;22.90;;;;;;;14.60;67.35;100152.14;108253;1284;21960;-82
2022/10/22 09:28:11;;;;;;;25.20;22.40;;;;;;;14.73;67.09;100156.48;108128;1286;22017;-83
2022/10/22 09:30:47;;;;;;;24.80;21.30;;;;;;;14.82;66.89;100160.33;108097;1286;22899;-82
2022/10/22 09:33:29;;;;;;;22.50;20.10;;;;;;;14.91;66.54;100163.13;106892;1292;1136767;-84
2022/10/22 09:36:12;;;;;;;;;;;;;;;14.97;66.20;100157.55;107471;1293;22932;-83
2022/10/22 09:38:51;;;;;;;22.30;18.70;;;;;;;14.92;66.30;100151.00;107256;1295;22323;-81
2022/10/22 09:41:28;;;;;;;25.40;20.10;;;;;;;14.97;66.29;100138.45;107102;1295;24313;-81
2022/10/22 09:43:58;;;;;;;20.00;17.90;;;;;;;15.03;66.10;100133.34;107252;1296;22335;-81
2022/10/22 09:46:38;;;;;;;29.00;19.40;;;;;;;15.09;65.87;100139.98;106341;1303;21966;-82
2022/10/22 09:49:15;;;;;;;24.80;17.40;;;;;;;15.13;65.72;100140.65;106317;1303;21987;-80
2022/10/22 09:52:29;;;;;;;23.80;21.30;;;;;;;15.16;65.73;100143.77;106578;1295;23066;-81
2022/10/22 09:55:13;;;;;;;20.10;18.10;;;;;;;15.17;65.73;100144.45;107282;1295;21984;-81
2022/10/22 09:57:45;;;;;;;22.70;20.40;;;;;;;15.20;65.79;100141.41;107134;1293;21960;-82
2022/10/22 10:00:27;;;;;;;32.30;28.80;;;;;;;15.24;65.62;100141.01;107465;1291;23968;-81
2022/10/22 10:02:59;;;;;;;38.80;34.70;;;;;;;15.28;65.68;100142.36;106828;1300;23113;-82
2022/10/22 10:05:33;;;;;;;26.90;23.80;;;;;;;15.36;65.88;100149.27;107314;1295;22164;-83
2022/10/22 10:08:18;;;;;;;24.70;21.80;;;;;;;15.41;65.66;100151.92;107401;1295;22762;-81
2022/10/22 10:11:11;;;;;;;18.50;16.80;;;;;;;15.43;65.48;100155.30;106893;1292;23193;-82
2022/10/22 10:13:58;;;;;;;30.70;25.60;;;;;;;15.46;65.50;100160.39;106322;1301;21975;-87
2022/10/22 10:16:45;;;;;;;35.40;31.70;;;;;;;15.43;65.34;100170.70;106289;1302;24657;-80
2022/10/22 10:19:55;;;;;;;35.20;21.60;;;;;;;15.37;65.48;100170.20;106323;1302;22413;-82
2022/10/22 10:23:09;;;;;;;28.00;23.60;;;;;;;15.38;65.66;100168.60;107172;1298;21959;-80
2022/10/22 10:25:44;;;;;;;26.40;23.50;;;;;;;15.42;65.71;100168.70;107319;1295;21953;-86
2022/10/22 10:28:54;;;;;;;22.10;20.00;;;;;;;15.44;65.69;100173.45;107305;1292;21968;-82
2022/10/22 10:32:24;;;;;;;21.10;18.90;;;;;;;15.46;65.71;100167.37;107299;1295;21972;-82
2022/10/22 10:35:25;;;;;;;24.00;21.30;;;;;;;15.47;65.73;100161.39;107493;1292;22620;-81
2022/10/22 10:38:11;;;;;;;21.50;19.30;;;;;;;15.53;65.80;100168.73;107267;1287;21975;-82
2022/10/22 10:41:16;;;;;;;25.80;20.70;;;;;;;15.57;65.81;100168.09;107340;1294;22045;-83
2022/10/22 10:44:16;;;;;;;20.40;17.20;;;;;;;15.59;65.61;100169.02;107511;1292;21958;-82
2022/10/22 10:46:59;;;;;;;18.60;16.70;;;;;;;15.60;65.55;100167.94;107245;1298;21966;-82
2022/10/22 10:49:35;;;;;;;22.70;20.20;;;;;;;15.63;65.61;100166.54;106461;1302;21987;-82
2022/10/22 10:52:17;;;;;;;23.90;18.40;;;;;;;15.64;65.26;100162.79;106365;1304;21966;-81
2022/10/22 10:55:42;;;;;;;24.30;18.40;;;;;;;15.59;65.29;100163.63;106097;1307;22453;-85
2022/10/22 10:58:56;;;;;;;19.50;17.50;;;;;;;15.54;65.26;100165.16;105679;1312;21998;-82
2022/10/22 11:02:21;;;;;;;21.80;19.50;;;;;;;15.52;65.47;100164.77;105697;1309;21991;-83
2022/10/22 11:05:24;;;;;;;29.20;20.80;;;;;;;15.51;65.50;100170.23;105698;1310;22163;-83
2022/10/22 11:08:28;;;;;;;25.50;22.80;;;;;;;15.52;65.52;100171.23;106295;1298;23875;-81
2022/10/22 11:11:20;;;;;;;40.50;36.50;;;;;;;15.51;65.62;100164.27;106535;1289;21971;-83
2022/10/22 11:14:14;;;;;;;37.80;33.90;;;;;;;15.54;65.75;100166.00;106210;1302;21961;-83
2022/10/22 11:17:02;;;;;;;26.80;24.00;;;;;;;15.53;65.67;100163.09;106199;1292;23926;-83
2022/10/22 11:19:42;;;;;;;26.80;24.00;;;;;;;15.54;65.77;100163.53;106201;1304;23890;-84
2022/10/22 11:22:40;;;;;;;27.30;22.80;;;;;;;15.52;65.60;100161.78;106239;1307;21981;-83
2022/10/22 11:25:41;;;;;;;25.90;22.30;;;;;;;15.49;65.89;100156.00;106443;1305;22008;-85
2022/10/22 11:28:32;;;;;;;37.40;25.70;;;;;;;15.52;65.92;100149.65;106023;1304;23065;-84
2022/10/22 11:31:19;;;;;;;26.30;22.10;;;;;;;15.53;65.90;100149.59;106417;1300;23033;-83
2022/10/22 11:34:23;;;;;;;20.70;18.70;;;;;;;15.54;65.84;100157.98;107423;1292;22013;-83
2022/10/22 11:37:14;;;;;;;18.60;16.70;;;;;;;15.51;65.88;100162.73;107918;1286;23703;-83
2022/10/22 11:40:02;;;;;;;19.80;17.80;;;;;;;15.51;65.81;100167.95;107566;1292;21953;-83
2022/10/22 11:42:38;;;;;;;25.40;17.30;;;;;;;15.51;65.71;100162.52;107495;1292;21983;-83
2022/10/22 11:45:12;;;;;;;20.80;17.90;;;;;;;15.50;65.73;100154.89;107241;1298;23665;-85
2022/10/22 11:48:09;;;;;;;26.30;23.30;;;;;;;15.51;65.95;100152.73;107394;1295;23607;-86
2022/10/22 11:50:59;;;;;;;33.00;25.20;;;;;;;15.49;65.93;100153.88;107174;1286;22635;-83
2022/10/22 11:53:36;;;;;;;31.80;26.90;;;;;;;15.48;66.01;100152.39;106454;1301;21948;-84
2022/10/22 11:56:05;;;;;;;29.00;24.50;;;;;;;15.48;66.25;100146.95;106536;1301;23662;-84
2022/10/22 11:58:42;;;;;;;26.90;24.00;;;;;;;15.49;66.26;100147.08;107198;1295;22145;-85
2022/10/22 12:01:11;;;;;;;37.40;30.10;;;;;;;15.47;66.32;100145.08;107074;1299;21953;-85
2022/10/22 12:03:52;;;;;;;37.80;28.60;;;;;;;15.47;66.38;100146.48;107307;1296;23117;-84
2022/10/22 12:06:28;;;;;;;24.30;21.80;;;;;;;15.45;66.47;100146.41;106915;1298;21995;-83
2022/10/22 12:09:06;;;;;;;23.20;20.80;;;;;;;15.45;66.61;100144.14;107244;1297;21956;-84
2022/10/22 12:11:46;;;;;;;22.50;20.10;;;;;;;15.44;66.58;100144.73;107230;1298;22036;-86
2022/10/22 12:14:28;;;;;;;28.90;20.50;;;;;;;15.43;66.60;100143.74;107222;1293;21906;-82
2022/10/22 12:17:11;;;;;;;47.30;42.80;;;;;;;15.38;66.68;100142.45;107263;1298;23754;-84
2022/10/22 12:20:06;;;;;;;22.00;19.70;;;;;;;15.36;66.91;100142.27;108096;1276;21914;-85
2022/10/22 12:22:41;;;;;;;25.80;19.30;;;;;;;15.34;67.13;100141.45;108100;1286;21955;-84
2022/10/22 12:25:24;;;;;;;22.40;19.00;;;;;;;15.36;67.16;100143.83;107522;1293;22123;-84
2022/10/22 12:28:12;;;;;;;23.20;20.90;;;;;;;15.34;67.19;100142.84;107366;1292;23030;-82
2022/10/22 12:30:41;;;;;;;27.90;21.60;;;;;;;15.34;67.26;100139.19;107399;1292;23018;-83
2022/10/22 12:33:31;;;;;;;25.40;22.90;;;;;;;15.34;67.32;100136.54;107429;1292;23987;-83
2022/10/22 12:36:02;;;;;;;28.30;25.50;;;;;;;15.31;67.28;100136.94;107424;1295;21964;-83
2022/10/22 12:38:32;;;;;;;23.20;20.90;;;;;;;15.30;67.50;100142.77;107393;1294;22020;-83
2022/10/22 12:41:02;;;;;;;27.90;24.50;;;;;;;15.30;67.62;100144.54;107547;1295;23692;-83